KGXY

Greeley-Weld County Airport

Greeley, Colorado, USA
METAR KGXY 170156Z AUTO 08009KT 9SM CLR 02/M05 A2990 RMK AO2 SLP155 T00171050 FZRANO
Observed Flight Rules
Dec-17 @ 01:56 UTC (36 minutes ago) Visual Flight Rules
Wind Visibility Clouds
80° at 9 knots 9 miles
  • Clear skies
Temperatures Readings
Current 2°C / 36°F
Dewpoint -5°C / 23°F
Humidity 60%
Altimeter 29.9" Hg
Pressure 1015.5 hPa
Elevation 1420
METAR KGXY 170156Z AUTO 08009KT 9SM CLR 02/M05 A2990 RMK AO2 SLP155 T00171050 FZRANO
Observed Flight Rules
Dec-17 @ 01:56 UTC
(36 minutes ago)
VFR
Wind Visibility
80° at 9 knots 9 miles
Clouds
  • Clear skies
Temperature Dewpoint
2°C / 36°F -5°C / 23°F
Humidity Altimeter Pressure
60% 29.9" Hg 1015.5 hPa